createdAt,value
2018-01-18T00:00:28.446Z,5.90
2018-01-18T00:01:28.403Z,5.70
2018-01-18T00:02:28.356Z,6.00
2018-01-18T00:03:28.319Z,5.40
2018-01-18T00:04:28.304Z,5.20
2018-01-18T00:05:28.225Z,5.00
2018-01-18T00:06:28.181Z,5.40
2018-01-18T00:07:28.143Z,5.40
2018-01-18T00:08:28.098Z,5.50
2018-01-18T00:09:28.067Z,5.40
2018-01-18T00:10:28.044Z,5.50
2018-01-18T00:11:27.968Z,5.80
2018-01-18T00:12:27.932Z,6.10
2018-01-18T00:13:27.896Z,4.90
2018-01-18T00:14:27.842Z,5.60
2018-01-18T00:15:27.801Z,5.00
2018-01-18T00:16:27.793Z,5.80
2018-01-18T00:17:27.721Z,4.80
2018-01-18T00:18:27.674Z,5.50
2018-01-18T00:19:27.637Z,4.80
2018-01-18T00:20:27.588Z,5.10
2018-01-18T00:21:27.552Z,5.10
2018-01-18T00:22:27.530Z,5.20
2018-01-18T00:23:27.466Z,4.40
2018-01-18T00:24:27.419Z,5.50
2018-01-18T00:25:27.388Z,4.70
2018-01-18T00:26:27.332Z,5.70
2018-01-18T00:27:27.302Z,5.20
2018-01-18T00:28:27.268Z,4.50
2018-01-18T00:29:27.206Z,5.40
2018-01-18T00:30:27.159Z,4.30
2018-01-18T00:31:27.126Z,4.80
2018-01-18T00:32:27.083Z,5.00
2018-01-18T00:33:27.075Z,5.00
2018-01-18T00:34:27.008Z,5.10
2018-01-18T00:35:26.955Z,5.50
2018-01-18T00:36:26.913Z,4.60
2018-01-18T00:37:26.872Z,5.20
2018-01-18T00:38:26.829Z,5.30
2018-01-18T00:39:26.814Z,4.70
2018-01-18T00:40:26.741Z,5.00
2018-01-18T00:41:36.887Z,5.20
2018-01-18T00:42:26.658Z,5.20
2018-01-18T00:43:26.614Z,5.20
2018-01-18T00:44:26.584Z,4.80
2018-01-18T00:45:26.579Z,5.60
2018-01-18T00:46:26.514Z,5.30
2018-01-18T00:47:26.476Z,5.50
2018-01-18T00:48:26.395Z,5.40
2018-01-18T00:49:26.355Z,5.10
2018-01-18T00:50:26.316Z,5.00
2018-01-18T00:51:26.295Z,5.00
2018-01-18T00:52:26.259Z,5.00
2018-01-18T00:53:26.187Z,5.00
2018-01-18T00:54:26.147Z,5.00
2018-01-18T00:55:26.104Z,5.00
2018-01-18T00:56:26.111Z,5.30
2018-01-18T00:57:26.026Z,4.80
2018-01-18T00:58:25.998Z,5.00
2018-01-18T00:59:25.930Z,5.50
2018-01-18T01:00:25.898Z,4.80
2018-01-18T01:01:25.876Z,4.70
2018-01-18T01:02:25.808Z,5.00
2018-01-18T01:03:25.767Z,5.60
2018-01-18T01:04:25.724Z,5.50
2018-01-18T01:05:25.684Z,5.10
2018-01-18T01:06:25.668Z,5.20
2018-01-18T01:07:25.590Z,5.50
2018-01-18T01:08:25.556Z,5.00
2018-01-18T01:09:25.508Z,5.70
2018-01-18T01:10:25.462Z,4.80
2018-01-18T01:11:25.421Z,5.10
2018-01-18T01:12:25.414Z,5.10
2018-01-18T01:13:25.337Z,4.70
2018-01-18T01:14:25.300Z,5.10
2018-01-18T01:15:25.255Z,5.00
2018-01-18T01:16:25.209Z,5.10
2018-01-18T01:17:25.169Z,5.70
2018-01-18T01:18:25.157Z,5.30
2018-01-18T01:19:25.095Z,5.10
2018-01-18T01:20:25.051Z,4.90
2018-01-18T01:21:25.005Z,5.00
2018-01-18T01:22:24.959Z,5.50
2018-01-18T01:23:24.921Z,5.20
2018-01-18T01:24:24.900Z,5.40
2018-01-18T01:25:24.838Z,5.20
2018-01-18T01:26:24.787Z,5.60
2018-01-18T01:27:24.750Z,6.30
2018-01-18T01:28:24.703Z,5.50
2018-01-18T01:29:24.665Z,5.40
2018-01-18T01:30:24.647Z,6.00
2018-01-18T01:31:24.578Z,5.60
2018-01-18T01:32:24.536Z,6.20
2018-01-18T01:33:24.497Z,6.30
2018-01-18T01:34:24.452Z,6.00
2018-01-18T01:35:24.413Z,5.50
2018-01-18T01:36:26.545Z,6.30
2018-01-18T01:37:24.324Z,5.80
2018-01-18T01:38:24.281Z,6.00
2018-01-18T01:39:24.240Z,5.60
2018-01-18T01:40:24.201Z,6.00
2018-01-18T01:41:24.162Z,5.60
2018-01-18T01:42:24.204Z,5.20
2018-01-18T01:43:24.067Z,5.40
2018-01-18T01:44:24.035Z,6.20
2018-01-18T01:45:23.987Z,6.10
2018-01-18T01:46:23.947Z,6.20
2018-01-18T01:47:23.907Z,5.60
2018-01-18T01:48:23.892Z,6.20
2018-01-18T01:49:23.814Z,6.20
2018-01-18T01:50:23.782Z,5.90
2018-01-18T01:51:23.732Z,5.70
2018-01-18T01:52:23.690Z,5.90
2018-01-18T01:53:23.660Z,5.90
2018-01-18T01:54:23.636Z,6.30
2018-01-18T01:55:23.564Z,6.20
2018-01-18T01:56:23.530Z,5.40
2018-01-18T01:57:23.486Z,5.40
2018-01-18T01:58:23.436Z,5.10
2018-01-18T01:59:23.392Z,5.00
2018-01-18T02:00:23.387Z,4.80
2018-01-18T02:01:23.315Z,5.00
2018-01-18T02:02:23.274Z,4.80
2018-01-18T02:03:23.228Z,5.00
2018-01-18T02:04:23.183Z,4.80
2018-01-18T02:05:23.156Z,5.70
2018-01-18T02:06:23.131Z,5.40
2018-01-18T02:07:23.063Z,4.90
2018-01-18T02:08:23.024Z,5.80
2018-01-18T02:09:22.973Z,5.80
2018-01-18T02:10:22.939Z,5.30
2018-01-18T02:11:22.885Z,4.80
2018-01-18T02:12:22.879Z,5.00
2018-01-18T02:13:22.805Z,5.10
2018-01-18T02:14:22.767Z,4.80
2018-01-18T02:15:22.724Z,5.10
2018-01-18T02:16:22.683Z,4.90
2018-01-18T02:17:22.634Z,5.40
2018-01-18T02:18:22.621Z,4.80
2018-01-18T02:19:22.554Z,5.10
2018-01-18T02:20:22.508Z,5.20
2018-01-18T02:21:22.476Z,4.90
2018-01-18T02:22:22.430Z,4.90
2018-01-18T02:23:22.389Z,4.60
2018-01-18T02:24:22.370Z,4.70
2018-01-18T02:25:22.303Z,4.20
2018-01-18T02:26:22.261Z,4.80
2018-01-18T02:27:22.225Z,4.90
2018-01-18T02:28:22.174Z,4.90
2018-01-18T02:29:22.157Z,4.90
2018-01-18T02:30:22.095Z,5.10
2018-01-18T02:31:22.053Z,4.50
2018-01-18T02:32:22.005Z,4.20
2018-01-18T02:33:21.967Z,5.00
2018-01-18T02:34:21.925Z,4.80
2018-01-18T02:35:21.908Z,4.90
2018-01-18T02:36:21.846Z,5.40
2018-01-18T02:37:21.802Z,4.80
2018-01-18T02:38:21.765Z,4.90
2018-01-18T02:39:21.721Z,4.90
2018-01-18T02:40:21.672Z,4.60
2018-01-18T02:41:21.651Z,6.00
2018-01-18T02:42:21.582Z,5.60
2018-01-18T02:43:21.548Z,5.80
2018-01-18T02:44:21.504Z,5.30
2018-01-18T02:45:21.467Z,5.70
2018-01-18T02:46:21.422Z,5.30
2018-01-18T02:47:21.404Z,4.60
2018-01-18T02:48:21.348Z,4.80
2018-01-18T02:49:21.291Z,5.00
2018-01-18T02:50:21.256Z,5.10
2018-01-18T02:51:21.215Z,4.70
2018-01-18T02:52:21.170Z,5.00
2018-01-18T02:53:21.148Z,4.70
2018-01-18T02:54:21.086Z,4.00
2018-01-18T02:55:21.037Z,4.40
2018-01-18T02:56:20.998Z,4.40
2018-01-18T02:57:20.959Z,3.90
2018-01-18T02:58:20.914Z,4.20
2018-01-18T02:59:20.905Z,4.30
2018-01-18T03:00:20.829Z,3.80
2018-01-18T03:01:20.793Z,4.00
2018-01-18T03:02:20.744Z,3.90
2018-01-18T03:03:20.710Z,3.90
2018-01-18T03:04:20.669Z,3.60
2018-01-18T03:05:20.652Z,3.80
2018-01-18T03:06:20.584Z,4.20
2018-01-18T03:07:20.538Z,4.00
2018-01-18T03:08:20.494Z,4.10
2018-01-18T03:09:20.450Z,4.10
2018-01-18T03:10:20.413Z,3.90
2018-01-18T03:11:20.403Z,3.70
2018-01-18T03:12:20.325Z,3.90
2018-01-18T03:13:20.285Z,4.10
2018-01-18T03:14:20.247Z,4.20
2018-01-18T03:15:20.202Z,4.00
2018-01-18T03:16:20.160Z,3.80
2018-01-18T03:17:20.149Z,3.80
2018-01-18T03:18:20.076Z,4.20
2018-01-18T03:19:20.037Z,4.40
2018-01-18T03:20:19.993Z,3.90
2018-01-18T03:21:19.954Z,3.90
2018-01-18T03:22:19.907Z,3.70
2018-01-18T03:23:19.898Z,3.30
2018-01-18T03:24:19.821Z,3.30
2018-01-18T03:25:19.789Z,3.70
2018-01-18T03:26:19.736Z,3.10
2018-01-18T03:27:19.701Z,3.40
2018-01-18T03:28:19.649Z,3.50
2018-01-18T03:29:19.637Z,3.90
2018-01-18T03:30:19.577Z,3.70
2018-01-18T03:31:19.528Z,3.80
2018-01-18T03:32:19.481Z,3.40
2018-01-18T03:33:19.442Z,3.70
2018-01-18T03:34:19.402Z,3.20
2018-01-18T03:35:19.390Z,3.50
2018-01-18T03:36:19.319Z,4.20
2018-01-18T03:37:19.273Z,3.70
2018-01-18T03:38:19.232Z,3.80
2018-01-18T03:39:19.189Z,4.20
2018-01-18T03:40:19.147Z,4.10
2018-01-18T03:41:19.134Z,4.50
2018-01-18T03:42:19.060Z,4.40
2018-01-18T03:43:19.018Z,4.70
2018-01-18T03:44:18.977Z,4.70
2018-01-18T03:45:18.931Z,4.70
2018-01-18T03:46:18.886Z,3.80
2018-01-18T03:47:18.883Z,4.00
2018-01-18T03:48:18.806Z,4.80
2018-01-18T03:49:18.768Z,4.80
2018-01-18T03:50:18.722Z,4.60
2018-01-18T03:51:18.677Z,4.90
2018-01-18T03:52:18.636Z,4.10
2018-01-18T03:53:18.618Z,4.20
2018-01-18T03:54:18.595Z,4.10
2018-01-18T03:55:18.515Z,4.10
2018-01-18T03:56:18.464Z,4.40
2018-01-18T03:57:18.418Z,4.40
2018-01-18T03:58:18.382Z,4.10
2018-01-18T03:59:18.364Z,4.00
2018-01-18T04:00:18.292Z,4.20
2018-01-18T04:01:18.246Z,3.30
2018-01-18T04:02:18.207Z,3.60
2018-01-18T04:03:18.159Z,4.20
2018-01-18T04:04:18.163Z,3.60
2018-01-18T04:05:18.088Z,3.80
2018-01-18T04:06:18.041Z,4.00
2018-01-18T04:07:17.991Z,4.10
2018-01-18T04:08:17.951Z,3.80
2018-01-18T04:09:17.922Z,3.90
2018-01-18T04:10:17.884Z,3.80
2018-01-18T04:11:17.821Z,3.90
2018-01-18T04:12:17.774Z,3.60
2018-01-18T04:13:17.738Z,3.20
2018-01-18T04:14:17.713Z,3.30
2018-01-18T04:15:17.678Z,3.60
2018-01-18T04:16:17.605Z,3.60
2018-01-18T04:17:17.560Z,4.10
2018-01-18T04:18:17.521Z,3.90
2018-01-18T04:19:17.487Z,3.50
2018-01-18T04:20:17.451Z,3.40
2018-01-18T04:21:17.393Z,3.40
2018-01-18T04:22:17.354Z,3.90
2018-01-18T04:23:17.318Z,3.30
2018-01-18T04:24:17.256Z,3.40
2018-01-18T04:25:17.304Z,4.10
2018-01-18T04:26:17.180Z,3.70
2018-01-18T04:27:17.138Z,3.30
2018-01-18T04:28:17.097Z,3.50
2018-01-18T04:29:17.050Z,3.20
2018-01-18T04:30:17.025Z,3.50
2018-01-18T04:31:16.989Z,3.50
2018-01-18T04:32:16.917Z,3.50
2018-01-18T04:33:16.887Z,3.50
2018-01-18T04:34:16.833Z,3.40
2018-01-18T04:35:16.789Z,3.00
2018-01-18T04:36:16.764Z,3.70
2018-01-18T04:37:16.707Z,3.70
2018-01-18T04:38:16.659Z,3.50
2018-01-18T04:39:16.618Z,3.90
2018-01-18T04:40:16.567Z,4.10
2018-01-18T04:41:16.523Z,4.00
2018-01-18T04:42:16.506Z,4.50
2018-01-18T04:43:16.442Z,4.40
2018-01-18T04:44:16.392Z,4.30
2018-01-18T04:45:16.354Z,4.20
2018-01-18T04:46:16.309Z,4.50
2018-01-18T04:47:16.266Z,4.20
2018-01-18T04:48:16.257Z,4.50
2018-01-18T04:49:16.179Z,4.60
2018-01-18T04:50:16.137Z,4.30
2018-01-18T04:51:16.092Z,4.10
2018-01-18T04:52:16.044Z,3.80
2018-01-18T04:53:16.004Z,4.00
2018-01-18T04:54:15.990Z,3.90
2018-01-18T04:55:15.919Z,3.90
2018-01-18T04:56:15.871Z,4.50
2018-01-18T04:57:15.836Z,4.60
2018-01-18T04:58:15.783Z,4.00
2018-01-18T04:59:15.742Z,4.10
2018-01-18T05:00:15.733Z,3.60
2018-01-18T05:01:15.658Z,4.60
2018-01-18T05:02:15.616Z,4.00
2018-01-18T05:03:15.573Z,3.90
2018-01-18T05:04:15.533Z,4.20
2018-01-18T05:05:15.481Z,4.20
2018-01-18T05:06:15.470Z,4.00
2018-01-18T05:07:15.393Z,3.50
2018-01-18T05:08:15.367Z,4.60
2018-01-18T05:09:15.309Z,3.90
2018-01-18T05:10:15.270Z,4.50
2018-01-18T05:11:15.222Z,3.90
2018-01-18T05:12:15.208Z,4.60
2018-01-18T05:13:15.132Z,5.10
2018-01-18T05:14:15.090Z,5.00
2018-01-18T05:15:15.048Z,5.20
2018-01-18T05:16:15.002Z,4.10
2018-01-18T05:17:15.002Z,3.60
2018-01-18T05:18:14.925Z,4.90
2018-01-18T05:19:14.879Z,4.70
2018-01-18T05:20:14.837Z,4.60
2018-01-18T05:21:14.791Z,5.20
2018-01-18T05:22:14.742Z,4.50
2018-01-18T05:23:14.737Z,4.20
2018-01-18T05:24:14.661Z,4.60
2018-01-18T05:25:14.620Z,4.80
2018-01-18T05:26:14.574Z,4.40
2018-01-18T05:27:14.527Z,4.30
2018-01-18T05:28:14.482Z,3.90
2018-01-18T05:29:14.477Z,4.20
2018-01-18T05:30:14.395Z,4.30
2018-01-18T05:31:14.354Z,3.90
2018-01-18T05:32:14.318Z,3.70
2018-01-18T05:33:14.273Z,4.10
2018-01-18T05:34:14.225Z,3.50
2018-01-18T05:35:14.209Z,3.40
2018-01-18T05:36:14.147Z,3.30
2018-01-18T05:37:14.105Z,3.10
2018-01-18T05:38:14.057Z,3.40
2018-01-18T05:39:14.011Z,3.20
2018-01-18T05:40:13.972Z,3.00
2018-01-18T05:41:13.961Z,2.80
2018-01-18T05:42:13.888Z,2.70
2018-01-18T05:43:13.840Z,2.90
2018-01-18T05:44:13.792Z,2.60
2018-01-18T05:45:13.756Z,2.30
2018-01-18T05:46:13.716Z,2.70
2018-01-18T05:47:13.689Z,2.70
2018-01-18T05:48:13.618Z,2.10
2018-01-18T05:49:13.581Z,2.50
2018-01-18T05:50:13.542Z,2.30
2018-01-18T05:51:13.494Z,2.20
2018-01-18T05:52:23.465Z,2.10
2018-01-18T05:53:13.415Z,2.20
2018-01-18T05:54:13.374Z,2.00
2018-01-18T05:55:13.315Z,1.90
2018-01-18T05:56:13.275Z,2.00
2018-01-18T05:57:13.240Z,2.00
2018-01-18T05:58:13.222Z,2.20
2018-01-18T05:59:13.154Z,1.90
2018-01-18T06:00:13.101Z,1.90
2018-01-18T06:01:13.059Z,1.80
2018-01-18T06:02:13.023Z,1.70
2018-01-18T06:03:12.981Z,1.90
2018-01-18T06:04:12.960Z,1.70
2018-01-18T06:05:12.890Z,1.90
2018-01-18T06:06:12.855Z,1.80
2018-01-18T06:07:12.811Z,1.90
2018-01-18T06:08:12.800Z,1.90
2018-01-18T06:09:12.725Z,2.00
2018-01-18T06:10:12.732Z,1.90
2018-01-18T06:11:12.716Z,1.60
2018-01-18T06:12:12.626Z,1.80
2018-01-18T06:13:12.562Z,1.60
2018-01-18T06:14:12.547Z,1.90
2018-01-18T06:15:12.520Z,1.40
2018-01-18T06:16:12.627Z,1.20
2018-01-18T06:17:12.431Z,1.30
2018-01-18T06:18:12.348Z,1.10
2018-01-18T06:19:12.304Z,1.20
2018-01-18T06:20:12.265Z,1.30
2018-01-18T06:21:12.216Z,1.30
2018-01-18T06:22:12.207Z,1.30
2018-01-18T06:23:12.133Z,1.30
2018-01-18T06:24:12.091Z,1.40
2018-01-18T06:25:12.042Z,1.40
2018-01-18T06:26:12.002Z,1.60
2018-01-18T06:27:11.956Z,1.40
2018-01-18T06:28:11.945Z,1.60
2018-01-18T06:29:11.881Z,1.70
2018-01-18T06:30:11.836Z,1.70
2018-01-18T06:31:11.796Z,1.60
2018-01-18T06:32:11.759Z,2.00
2018-01-18T06:33:11.714Z,1.60
2018-01-18T06:34:11.697Z,1.60
2018-01-18T06:35:11.626Z,1.70
2018-01-18T06:36:11.595Z,1.70
2018-01-18T06:37:11.551Z,1.40
2018-01-18T06:38:11.505Z,1.50
2018-01-18T06:39:11.464Z,1.60
2018-01-18T06:40:11.464Z,1.60
2018-01-18T06:41:11.380Z,1.40
2018-01-18T06:42:11.342Z,1.40
2018-01-18T06:43:11.298Z,1.70
2018-01-18T06:44:11.250Z,1.30
2018-01-18T06:45:11.210Z,1.40
2018-01-18T06:46:11.201Z,1.50
2018-01-18T06:47:11.125Z,1.40
2018-01-18T06:48:11.083Z,1.50
2018-01-18T06:49:11.053Z,1.40
2018-01-18T06:50:11.008Z,1.40
2018-01-18T06:51:10.966Z,1.20
2018-01-18T06:52:10.974Z,1.10
2018-01-18T06:53:10.883Z,1.10
2018-01-18T06:54:10.842Z,1.20
2018-01-18T06:55:10.799Z,1.10
2018-01-18T06:56:10.769Z,1.40
2018-01-18T06:57:10.725Z,1.20
2018-01-18T06:58:10.714Z,1.20
2018-01-18T06:59:10.635Z,1.30
2018-01-18T07:00:10.590Z,1.30
2018-01-18T07:01:10.554Z,1.20
2018-01-18T07:02:10.510Z,1.20
2018-01-18T07:03:10.478Z,1.20
2018-01-18T07:04:10.451Z,1.20
2018-01-18T07:05:10.421Z,1.10
2018-01-18T07:06:10.349Z,1.10
2018-01-18T07:07:10.309Z,1.10
2018-01-18T07:08:10.261Z,1.30
2018-01-18T07:09:10.228Z,1.30
2018-01-18T07:10:10.209Z,1.20
2018-01-18T07:11:10.139Z,1.50
2018-01-18T07:12:10.100Z,1.10
2018-01-18T07:13:10.073Z,1.10
2018-01-18T07:14:10.045Z,1.10
2018-01-18T07:15:09.978Z,1.10
2018-01-18T07:16:09.973Z,1.10
2018-01-18T07:17:09.896Z,1.00
2018-01-18T07:18:09.854Z,1.30
2018-01-18T07:19:09.811Z,1.20
2018-01-18T07:20:09.770Z,1.20
2018-01-18T07:21:09.734Z,1.20
2018-01-18T07:22:09.719Z,1.10
2018-01-18T07:23:09.654Z,1.30
2018-01-18T07:24:09.620Z,1.30
2018-01-18T07:25:09.564Z,1.30
2018-01-18T07:26:09.533Z,1.20
2018-01-18T07:27:09.515Z,1.30
2018-01-18T07:28:09.448Z,1.40
2018-01-18T07:29:09.407Z,1.10
2018-01-18T07:30:09.379Z,1.20
2018-01-18T07:31:09.315Z,1.10
2018-01-18T07:32:09.282Z,1.10
2018-01-18T07:33:09.268Z,1.30
2018-01-18T07:34:09.206Z,1.50
2018-01-18T07:35:09.155Z,1.10
2018-01-18T07:36:09.119Z,1.40
2018-01-18T07:37:09.077Z,1.40
2018-01-18T07:38:09.037Z,1.30
2018-01-18T07:39:09.024Z,1.60
2018-01-18T07:40:09.011Z,1.30
2018-01-18T07:41:08.919Z,1.20
2018-01-18T07:42:08.878Z,1.40
2018-01-18T07:43:08.846Z,1.40
2018-01-18T07:44:08.790Z,1.30
2018-01-18T07:45:08.778Z,1.40
2018-01-18T07:46:08.715Z,1.50
2018-01-18T07:47:08.675Z,1.50
2018-01-18T07:48:08.633Z,1.50
2018-01-18T07:49:08.587Z,1.40
2018-01-18T07:50:08.576Z,1.30
2018-01-18T07:51:08.554Z,1.50
2018-01-18T07:52:08.485Z,1.70
2018-01-18T07:53:08.433Z,1.40
2018-01-18T07:54:08.389Z,1.60
2018-01-18T07:55:08.351Z,1.60
2018-01-18T07:56:08.312Z,1.70
2018-01-18T07:57:08.290Z,1.60
2018-01-18T07:58:08.223Z,1.50
2018-01-18T07:59:08.194Z,1.50
2018-01-18T08:00:08.152Z,1.20
2018-01-18T08:01:08.108Z,1.50
2018-01-18T08:02:08.068Z,1.40
2018-01-18T08:03:08.059Z,1.40
2018-01-18T08:04:07.992Z,1.40
2018-01-18T08:05:07.947Z,1.50
2018-01-18T08:06:07.911Z,1.50
2018-01-18T08:07:07.875Z,1.50
2018-01-18T08:08:07.838Z,1.40
2018-01-18T08:09:07.827Z,1.40
2018-01-18T08:10:07.751Z,1.60
2018-01-18T08:11:07.698Z,1.50
2018-01-18T08:12:07.666Z,1.50
2018-01-18T08:13:07.626Z,1.40
2018-01-18T08:14:07.596Z,1.50
2018-01-18T08:15:07.578Z,1.30
2018-01-18T08:16:07.513Z,1.60
2018-01-18T08:17:07.472Z,1.40
2018-01-18T08:18:07.423Z,1.60
2018-01-18T08:19:07.392Z,1.50
2018-01-18T08:20:07.348Z,1.40
2018-01-18T08:21:07.337Z,1.50
2018-01-18T08:22:07.261Z,1.40
2018-01-18T08:23:07.235Z,1.50
2018-01-18T08:24:07.189Z,1.60
2018-01-18T08:25:07.200Z,1.50
2018-01-18T08:26:07.114Z,1.80
2018-01-18T08:27:07.092Z,1.50
2018-01-18T08:28:07.028Z,1.70
2018-01-18T08:29:06.986Z,2.00
2018-01-18T08:30:06.947Z,1.70
2018-01-18T08:31:06.903Z,1.70
2018-01-18T08:32:06.868Z,1.80
2018-01-18T08:33:06.878Z,1.70
2018-01-18T08:34:06.794Z,1.90
2018-01-18T08:35:06.759Z,2.00
2018-01-18T08:36:06.716Z,1.70
2018-01-18T08:37:06.667Z,1.70
2018-01-18T08:38:06.630Z,1.80
2018-01-18T08:39:06.666Z,2.10
2018-01-18T08:40:06.554Z,2.00
2018-01-18T08:41:06.512Z,2.20
2018-01-18T08:42:06.490Z,1.90
2018-01-18T08:43:06.436Z,2.60
2018-01-18T08:44:06.397Z,2.20
2018-01-18T08:45:06.383Z,2.10
2018-01-18T08:46:06.360Z,2.30
2018-01-18T08:47:06.278Z,2.30
2018-01-18T08:48:06.242Z,2.60
2018-01-18T08:49:06.204Z,2.30
2018-01-18T08:50:06.193Z,2.40
2018-01-18T08:51:06.120Z,2.40
2018-01-18T08:52:06.157Z,2.70
2018-01-18T08:53:06.043Z,2.60
2018-01-18T08:54:06.009Z,2.30
2018-01-18T08:55:05.973Z,2.40
2018-01-18T08:56:05.962Z,2.60
2018-01-18T08:57:05.894Z,3.00
2018-01-18T08:58:05.857Z,2.90
2018-01-18T08:59:05.811Z,3.00
2018-01-18T09:00:05.770Z,3.00
2018-01-18T09:01:05.756Z,3.20
2018-01-18T09:02:05.701Z,3.20
2018-01-18T09:03:05.662Z,3.30
2018-01-18T09:04:05.620Z,3.60
2018-01-18T09:05:05.575Z,3.50
2018-01-18T09:06:05.561Z,3.40
2018-01-18T09:07:05.500Z,3.40
2018-01-18T09:08:05.464Z,3.60
2018-01-18T09:09:05.431Z,3.40
2018-01-18T09:10:05.391Z,3.50
2018-01-18T09:11:05.381Z,3.70
2018-01-18T09:12:05.308Z,3.70
2018-01-18T09:13:05.268Z,3.70
2018-01-18T09:14:05.236Z,3.90
2018-01-18T09:15:05.199Z,4.10
2018-01-18T09:16:05.154Z,4.10
2018-01-18T09:17:05.139Z,4.00
2018-01-18T09:18:05.133Z,4.00
2018-01-18T09:19:05.045Z,4.40
2018-01-18T09:20:05.005Z,4.20
2018-01-18T09:21:04.971Z,4.00
2018-01-18T09:22:04.957Z,4.60
2018-01-18T09:23:04.893Z,4.50
2018-01-18T09:24:04.851Z,4.50
2018-01-18T09:25:04.827Z,4.30
2018-01-18T09:26:04.772Z,4.60
2018-01-18T09:27:04.743Z,3.90
2018-01-18T09:28:04.778Z,4.40
2018-01-18T09:29:04.666Z,4.30
2018-01-18T09:30:04.628Z,4.80
2018-01-18T09:31:04.580Z,4.80
2018-01-18T09:32:04.543Z,4.60
2018-01-18T09:33:04.506Z,4.70
2018-01-18T09:34:04.504Z,4.40
2018-01-18T09:35:04.433Z,4.90
2018-01-18T09:36:04.393Z,4.40
2018-01-18T09:37:04.358Z,4.40
2018-01-18T09:38:04.314Z,4.20
2018-01-18T09:39:04.279Z,4.10
2018-01-18T09:40:04.277Z,4.80
2018-01-18T09:41:04.204Z,5.00
2018-01-18T09:42:04.161Z,4.30
2018-01-18T09:43:04.140Z,4.50
2018-01-18T09:44:04.086Z,4.70
2018-01-18T09:45:04.119Z,4.70
2018-01-18T09:46:04.042Z,3.80
2018-01-18T09:47:03.984Z,4.30
2018-01-18T09:48:03.962Z,4.30
2018-01-18T09:49:03.902Z,5.00
2018-01-18T09:50:03.856Z,4.60
2018-01-18T09:51:03.821Z,4.50
2018-01-18T09:52:03.814Z,4.60
2018-01-18T09:53:03.772Z,4.70
2018-01-18T09:54:03.713Z,5.00
2018-01-18T09:55:03.665Z,4.40
2018-01-18T09:56:03.633Z,4.10
2018-01-18T09:57:03.592Z,4.50
2018-01-18T09:58:03.585Z,3.90
2018-01-18T09:59:03.519Z,3.80
2018-01-18T10:00:03.485Z,3.60
2018-01-18T10:01:03.448Z,3.20
2018-01-18T10:02:03.407Z,2.60
2018-01-18T10:03:03.362Z,2.80
2018-01-18T10:04:03.352Z,3.10
2018-01-18T10:05:03.286Z,2.60
2018-01-18T10:06:03.249Z,2.50
2018-01-18T10:07:03.212Z,2.30
2018-01-18T10:08:03.182Z,2.60
2018-01-18T10:09:03.153Z,2.70
2018-01-18T10:10:03.121Z,2.50
2018-01-18T10:11:03.061Z,2.40
2018-01-18T10:12:03.017Z,2.40
2018-01-18T10:13:02.991Z,2.40
2018-01-18T10:14:02.940Z,2.60
2018-01-18T10:15:02.913Z,2.00
2018-01-18T10:16:02.891Z,2.30
2018-01-18T10:17:02.820Z,2.60
2018-01-18T10:18:02.781Z,2.10
2018-01-18T10:19:02.753Z,2.70
2018-01-18T10:20:02.709Z,2.40
2018-01-18T10:21:02.702Z,2.40
2018-01-18T10:22:02.639Z,2.70
2018-01-18T10:23:02.591Z,2.40
2018-01-18T10:24:02.562Z,2.20
2018-01-18T10:25:02.520Z,2.20
2018-01-18T10:26:02.474Z,2.30
2018-01-18T10:27:02.462Z,2.20
2018-01-18T10:28:02.412Z,2.40
2018-01-18T10:29:02.369Z,2.70
2018-01-18T10:30:02.322Z,2.60
2018-01-18T10:31:02.285Z,2.10
2018-01-18T10:32:02.244Z,2.30
2018-01-18T10:33:02.243Z,2.50
2018-01-18T10:34:02.176Z,2.50
2018-01-18T10:35:02.131Z,2.80
2018-01-18T10:36:02.090Z,2.40
2018-01-18T10:37:02.048Z,2.90
2018-01-18T10:38:02.010Z,2.30
2018-01-18T10:39:02.004Z,2.60
2018-01-18T10:40:01.940Z,2.50
2018-01-18T10:41:01.902Z,2.20
2018-01-18T10:42:01.859Z,2.80
2018-01-18T10:43:01.822Z,2.40
2018-01-18T10:44:01.781Z,2.40
2018-01-18T10:45:01.778Z,2.10
2018-01-18T10:46:01.723Z,2.50
2018-01-18T10:47:01.667Z,2.10
2018-01-18T10:48:01.633Z,2.30
2018-01-18T10:49:01.591Z,2.90
2018-01-18T10:50:01.560Z,2.60
2018-01-18T10:51:01.526Z,2.20
2018-01-18T10:52:01.470Z,2.10
2018-01-18T10:53:01.451Z,2.30
2018-01-18T10:54:01.392Z,2.00
2018-01-18T10:55:01.375Z,2.10
2018-01-18T10:56:01.338Z,2.20
2018-01-18T10:57:01.277Z,2.30
2018-01-18T10:58:01.244Z,2.30
2018-01-18T10:59:01.210Z,2.30
2018-01-18T11:00:01.158Z,2.30
2018-01-18T11:01:01.145Z,2.20
2018-01-18T11:02:01.088Z,2.20
2018-01-18T11:03:01.066Z,1.90
2018-01-18T11:04:01.039Z,1.90
2018-01-18T11:05:00.973Z,1.80
2018-01-18T11:06:00.961Z,2.20
2018-01-18T11:07:00.899Z,1.90
2018-01-18T11:08:00.856Z,1.90
2018-01-18T11:09:00.807Z,2.00
2018-01-18T11:10:00.776Z,2.10
2018-01-18T11:11:00.741Z,2.20
2018-01-18T11:12:00.730Z,1.90
2018-01-18T11:13:00.668Z,1.80
2018-01-18T11:14:00.612Z,1.80
2018-01-18T11:15:00.575Z,2.00
2018-01-18T11:16:00.534Z,1.60
2018-01-18T11:17:00.548Z,2.00
2018-01-18T11:18:00.492Z,1.80
2018-01-18T11:19:00.424Z,2.10
2018-01-18T11:20:00.383Z,2.30
2018-01-18T11:21:00.340Z,2.00
2018-01-18T11:22:00.301Z,1.90
2018-01-18T11:23:00.267Z,2.10
2018-01-18T11:24:00.245Z,2.00
2018-01-18T11:25:00.185Z,2.00
2018-01-18T11:26:00.150Z,2.30
2018-01-18T11:27:00.107Z,2.00
2018-01-18T11:28:11.547Z,2.20
2018-01-18T11:29:00.049Z,2.10
2018-01-18T11:30:00.001Z,2.20
2018-01-18T11:30:59.941Z,1.90
2018-01-18T11:31:59.901Z,2.20
2018-01-18T11:32:59.859Z,2.10
2018-01-18T11:33:59.825Z,1.80
2018-01-18T11:34:59.809Z,1.90
2018-01-18T11:35:59.747Z,1.70
2018-01-18T11:36:59.706Z,1.90
2018-01-18T11:37:59.670Z,2.00
2018-01-18T11:38:59.627Z,2.20
2018-01-18T11:39:59.638Z,2.00
2018-01-18T11:40:59.578Z,1.80
2018-01-18T11:41:59.506Z,1.90
2018-01-18T11:42:59.466Z,2.20
2018-01-18T11:43:59.425Z,1.70
2018-01-18T11:44:59.378Z,2.20
2018-01-18T11:45:59.339Z,2.20
2018-01-18T11:46:59.332Z,2.20
2018-01-18T11:47:59.257Z,1.70
2018-01-18T11:48:59.223Z,1.80
2018-01-18T11:49:59.191Z,2.20
2018-01-18T11:50:59.146Z,1.90
2018-01-18T11:51:59.108Z,2.20
2018-01-18T11:52:59.084Z,1.70
2018-01-18T11:53:59.034Z,2.20
2018-01-18T11:54:58.980Z,2.00
2018-01-18T11:55:58.965Z,2.00
2018-01-18T11:56:58.908Z,1.90
2018-01-18T11:57:58.885Z,2.00
2018-01-18T11:58:58.828Z,2.10
2018-01-18T11:59:58.785Z,1.80
2018-01-18T12:00:58.752Z,2.30
2018-01-18T12:01:58.703Z,1.80
2018-01-18T12:02:58.662Z,1.60
2018-01-18T12:03:58.644Z,1.90
2018-01-18T12:04:58.584Z,1.80
2018-01-18T12:05:58.541Z,2.20
2018-01-18T12:06:58.505Z,1.90
2018-01-18T12:07:58.466Z,1.80
2018-01-18T12:08:58.427Z,1.80
2018-01-18T12:09:58.422Z,1.80
2018-01-18T12:10:58.347Z,2.00
2018-01-18T12:11:58.302Z,1.90
2018-01-18T12:12:58.272Z,2.00
2018-01-18T12:13:58.230Z,2.00
2018-01-18T12:14:58.211Z,1.80
2018-01-18T12:15:58.168Z,2.10
2018-01-18T12:16:58.104Z,1.90
2018-01-18T12:17:58.067Z,2.30
2018-01-18T12:18:58.030Z,1.80
2018-01-18T12:19:57.991Z,2.20
2018-01-18T12:20:57.949Z,2.10
2018-01-18T12:21:57.934Z,2.70
2018-01-18T12:22:57.861Z,2.80
2018-01-18T12:23:57.834Z,2.00
2018-01-18T12:24:57.787Z,3.00
2018-01-18T12:25:57.738Z,2.20
2018-01-18T12:26:57.700Z,2.50
2018-01-18T12:27:57.695Z,2.20
2018-01-18T12:28:57.625Z,2.20
2018-01-18T12:29:57.581Z,2.50
2018-01-18T12:30:57.544Z,2.60
2018-01-18T12:31:57.501Z,2.20
2018-01-18T12:32:57.467Z,2.00
2018-01-18T12:33:57.450Z,2.30
2018-01-18T12:34:57.390Z,1.70
2018-01-18T12:35:57.341Z,2.10
2018-01-18T12:36:57.306Z,2.10
2018-01-18T12:37:57.265Z,2.00
2018-01-18T12:38:57.250Z,2.10
2018-01-18T12:39:57.184Z,2.00
2018-01-18T12:40:57.140Z,2.20
2018-01-18T12:41:57.100Z,2.40
2018-01-18T12:42:57.057Z,1.90
2018-01-18T12:43:57.015Z,2.10
2018-01-18T12:44:57.014Z,2.20
2018-01-18T12:45:56.949Z,2.20
2018-01-18T12:46:56.896Z,2.20
2018-01-18T12:47:56.862Z,2.00
2018-01-18T12:48:56.815Z,1.90
2018-01-18T12:49:56.775Z,2.00
2018-01-18T12:50:56.767Z,2.10
2018-01-18T12:51:56.702Z,2.00
2018-01-18T12:52:56.654Z,2.20
2018-01-18T12:53:56.621Z,2.20
2018-01-18T12:54:56.574Z,2.40
2018-01-18T12:55:56.537Z,2.30
2018-01-18T12:56:56.524Z,2.30
2018-01-18T12:57:56.493Z,2.30
2018-01-18T12:58:56.421Z,2.30
2018-01-18T12:59:56.425Z,1.90
2018-01-18T13:00:56.337Z,2.10
2018-01-18T13:01:56.300Z,2.20
2018-01-18T13:02:56.285Z,2.10
2018-01-18T13:03:56.223Z,2.40
2018-01-18T13:04:56.177Z,2.20
2018-01-18T13:05:56.140Z,1.90
2018-01-18T13:06:56.104Z,2.10
2018-01-18T13:07:56.065Z,2.30
2018-01-18T13:08:56.051Z,2.20
2018-01-18T13:09:55.982Z,2.70
2018-01-18T13:10:55.939Z,2.50
2018-01-18T13:11:55.905Z,2.20
2018-01-18T13:12:55.853Z,2.20
2018-01-18T13:13:55.817Z,2.50
2018-01-18T13:14:55.805Z,2.50
2018-01-18T13:15:55.732Z,3.00
2018-01-18T13:16:55.695Z,2.70
2018-01-18T13:17:55.652Z,2.80